Time;durP1;ratioP1;P1;durP2;ratioP2;P2;SDS_P1;SDS_P2;PMS_P1;PMS_P2;Temp;Humidity;BMP_temperature;BMP_pressure;BME280_temperature;BME280_humidity;BME280_pressure;Samples;Min_cycle;Max_cycle;Signal;HPM_P1;HPM_P2
2022/01/19 00:01:16;;;;;;;;;;;2.50;99.90;;;;;;5042002;28;19979;-80
2022/01/19 00:03:42;;;;;;;;;;;2.50;99.90;;;;;;5022057;28;19928;-79
2022/01/19 00:06:08;;;;;;;;;;;2.60;99.90;;;;;;5046544;28;19913;-79
2022/01/19 00:08:33;;;;;;;;;;;2.60;99.90;;;;;;5049674;28;19916;-79
2022/01/19 00:10:59;;;;;;;;;;;2.70;99.90;;;;;;5033396;28;19975;-79
2022/01/19 00:13:25;;;;;;;;;;;2.70;99.90;;;;;;5047927;28;20710;-80
2022/01/19 00:15:51;;;;;;;;;;;2.70;99.90;;;;;;5016060;28;19916;-79
2022/01/19 00:18:17;;;;;;;;;;;2.60;99.90;;;;;;5003264;28;20551;-79
2022/01/19 00:20:43;;;;;;;;;;;2.60;99.90;;;;;;5027310;28;19989;-79
2022/01/19 00:23:10;;;;;;;;;;;2.60;99.90;;;;;;5057698;28;20386;-80
2022/01/19 00:25:37;;;;;;;;;;;2.50;99.90;;;;;;5025942;28;19917;-78
2022/01/19 00:28:03;;;;;;;;;;;2.50;99.90;;;;;;5046507;28;19917;-79
2022/01/19 00:30:29;;;;;;;;;;;2.40;99.90;;;;;;5054964;28;19920;-79
2022/01/19 00:32:54;;;;;;;;;;;2.40;99.90;;;;;;5042615;28;19924;-79
2022/01/19 00:35:20;;;;;;;;;;;2.50;99.90;;;;;;5030487;28;20016;-79
2022/01/19 00:37:46;;;;;;;;;;;2.50;99.90;;;;;;5050114;28;19932;-80
2022/01/19 00:40:14;;;;;;;;;;;2.50;99.90;;;;;;5048597;28;19920;-79
2022/01/19 00:42:40;;;;;;;;;;;2.60;99.90;;;;;;5033364;28;19953;-79
2022/01/19 00:45:07;;;;;;;;;;;2.60;99.90;;;;;;5049802;28;19920;-79
2022/01/19 00:47:33;;;;;;;;;;;2.60;99.90;;;;;;5047661;28;19917;-79
2022/01/19 00:49:58;;;;;;;;;;;2.50;99.90;;;;;;5032048;28;19923;-79
2022/01/19 00:52:24;;;;;;;;;;;2.40;99.90;;;;;;5050885;28;20003;-79
2022/01/19 00:54:50;;;;;;;;;;;2.40;99.90;;;;;;5049523;28;19973;-80
2022/01/19 00:57:15;;;;;;;;;;;2.40;99.90;;;;;;5032223;28;20548;-79
2022/01/19 00:59:41;;;;;;;;;;;2.40;99.90;;;;;;5049309;28;20368;-78
2022/01/19 01:02:07;;;;;;;;;;;2.40;99.90;;;;;;5009874;28;20008;-79
2022/01/19 01:04:32;;;;;;;;;;;2.40;99.90;;;;;;5024800;28;20335;-79
2022/01/19 01:06:58;;;;;;;;;;;2.40;99.90;;;;;;5032545;28;19917;-79
2022/01/19 01:09:24;;;;;;;;;;;2.40;99.90;;;;;;5049209;28;19955;-79
2022/01/19 01:18:17;;;;;;;;;;;2.40;99.90;;;;;;5030436;28;19956;-79
2022/01/19 01:19:59;;;;;;;;;;;2.40;99.90;;;;;;5028783;28;19913;-79
2022/01/19 01:22:24;;;;;;;;;;;2.40;99.90;;;;;;5016619;28;19933;-80
2022/01/19 01:24:50;;;;;;;;;;;2.40;99.90;;;;;;5031538;28;20046;-79
2022/01/19 01:27:16;;;;;;;;;;;2.30;99.90;;;;;;4997299;28;19917;-79
2022/01/19 01:29:42;;;;;;;;;;;2.30;99.90;;;;;;5046788;28;19920;-79
2022/01/19 01:32:08;;;;;;;;;;;2.30;99.90;;;;;;5034693;28;20339;-78
2022/01/19 01:34:34;;;;;;;;;;;2.20;99.90;;;;;;5029618;28;19959;-79
2022/01/19 01:37:00;;;;;;;;;;;2.20;99.90;;;;;;5043312;28;19913;-79
2022/01/19 01:39:25;;;;;;;;;;;2.20;99.90;;;;;;5048839;28;19966;-80
2022/01/19 01:41:51;;;;;;;;;;;2.20;99.90;;;;;;5049253;28;20395;-79
2022/01/19 01:44:23;;;;;;;;;;;2.20;99.90;;;;;;5047292;28;19923;-78
2022/01/19 01:46:54;;;;;;;;;;;2.20;99.90;;;;;;5032059;28;20303;-79
2022/01/19 01:49:27;;;;;;;;;;;2.20;99.90;;;;;;5032710;28;19917;-79
2022/01/19 01:54:40;;;;;;;;;;;2.10;99.90;;;;;;5032669;28;19956;-79
2022/01/19 01:57:06;;;;;;;;;;;2.10;99.90;;;;;;5035694;28;19959;-79
2022/01/19 01:59:32;;;;;;;;;;;2.10;99.90;;;;;;5013852;28;19921;-79
2022/01/19 02:02:18;;;;;;;;;;;2.00;99.90;;;;;;5030453;28;19921;-78
2022/01/19 02:04:44;;;;;;;;;;;2.00;99.90;;;;;;5026164;28;19917;-79
2022/01/19 02:09:52;;;;;;;;;;;2.00;99.90;;;;;;5041293;28;20384;-79
2022/01/19 02:25:44;;;;;;;;;;;2.00;99.90;;;;;;5042392;28;19913;-78
2022/01/19 02:41:36;;;;;;;;;;;1.80;99.90;;;;;;5051879;28;19956;-79
2022/01/19 02:44:02;;;;;;;;;;;1.80;99.90;;;;;;5051857;28;20012;-79
2022/01/19 02:49:17;;;;;;;;;;;1.70;99.90;;;;;;5037305;28;19917;-79
2022/01/19 02:51:44;;;;;;;;;;;1.80;99.90;;;;;;5051908;28;19920;-80
2022/01/19 02:54:13;;;;;;;;;;;1.70;99.90;;;;;;5035066;28;19912;-79
2022/01/19 02:56:42;;;;;;;;;;;1.70;99.90;;;;;;5032050;28;19951;-78
2022/01/19 03:06:28;;;;;;;;;;;1.60;99.90;;;;;;5032122;28;19966;-79
2022/01/19 03:10:10;;;;;;;;;;;1.60;99.90;;;;;;5031224;28;19939;-79
2022/01/19 03:12:35;;;;;;;;;;;1.60;99.90;;;;;;5045050;28;20430;-79
2022/01/19 03:15:01;;;;;;;;;;;1.70;99.90;;;;;;5025966;28;19914;-79
2022/01/19 03:17:27;;;;;;;;;;;1.60;99.90;;;;;;5031133;28;19913;-79
2022/01/19 03:19:52;;;;;;;;;;;1.60;99.90;;;;;;5014227;28;20000;-79
2022/01/19 03:22:23;;;;;;;;;;;1.70;99.90;;;;;;5014909;28;19921;-79
2022/01/19 03:24:51;;;;;;;;;;;1.70;99.90;;;;;;5015613;28;19917;-79
2022/01/19 03:27:17;;;;;;;;;;;1.60;99.90;;;;;;5034352;28;19917;-79
2022/01/19 03:29:44;;;;;;;;;;;1.60;99.90;;;;;;5034045;28;19967;-79
2022/01/19 03:32:11;;;;;;;;;;;1.50;99.90;;;;;;5017173;28;19955;-79
2022/01/19 03:34:37;;;;;;;;;;;1.50;99.90;;;;;;5033605;28;19913;-79
2022/01/19 03:37:04;;;;;;;;;;;1.50;99.90;;;;;;5046151;28;19920;-79
2022/01/19 03:39:30;;;;;;;;;;;1.50;99.90;;;;;;5034201;28;19916;-79
2022/01/19 03:41:56;;;;;;;;;;;1.40;99.90;;;;;;5024788;28;20063;-79
2022/01/19 03:44:21;;;;;;;;;;;1.50;99.90;;;;;;5032070;28;19959;-78
2022/01/19 03:46:59;;;;;;;;;;;1.50;99.90;;;;;;5034256;28;19924;-79
2022/01/19 03:49:26;;;;;;;;;;;1.60;99.90;;;;;;5036952;28;19915;-79
2022/01/19 03:51:59;;;;;;;;;;;1.60;99.90;;;;;;5015264;28;20299;-78
2022/01/19 03:54:25;;;;;;;;;;;1.70;99.90;;;;;;5030906;28;20016;-79
2022/01/19 03:56:51;;;;;;;;;;;1.60;99.90;;;;;;5034078;28;20315;-79
2022/01/19 03:59:16;;;;;;;;;;;1.60;99.90;;;;;;5032431;28;19967;-78
2022/01/19 04:01:42;;;;;;;;;;;1.60;99.90;;;;;;5031909;28;20007;-78
2022/01/19 04:09:27;;;;;;;;;;;1.60;99.90;;;;;;5043412;28;19916;-79
2022/01/19 04:11:53;;;;;;;;;;;1.60;99.90;;;;;;5050387;28;19925;-78
2022/01/19 04:14:22;;;;;;;;;;;1.60;99.90;;;;;;5051782;28;20011;-79
2022/01/19 04:16:49;;;;;;;;;;;1.60;99.90;;;;;;5046506;28;19917;-79
2022/01/19 04:19:28;;;;;;;;;;;1.60;99.90;;;;;;5047118;28;19913;-79
2022/01/19 04:22:00;;;;;;;;;;;1.60;99.90;;;;;;5031334;28;19921;-79
2022/01/19 04:24:26;;;;;;;;;;;1.60;99.90;;;;;;5037706;28;19921;-79
2022/01/19 04:29:37;;;;;;;;;;;1.60;99.90;;;;;;5037750;28;19919;-79
2022/01/19 04:32:10;;;;;;;;;;;1.50;99.90;;;;;;5039943;28;19920;-79
2022/01/19 04:34:38;;;;;;;;;;;1.40;99.90;;;;;;5050150;28;19960;-78
2022/01/19 04:37:28;;;;;;;;;;;1.40;99.90;;;;;;5051254;28;19924;-79
2022/01/19 04:48:25;;;;;;;;;;;1.20;99.90;;;;;;5049964;28;19959;-79
2022/01/19 05:02:05;;;;;;;;;;;1.20;99.90;;;;;;5049750;28;19939;-78
2022/01/19 05:04:48;;;;;;;;;;;1.30;99.90;;;;;;5043779;28;19948;-79
2022/01/19 05:15:41;;;;;;;;;;;1.30;99.90;;;;;;5049561;28;19912;-79
2022/01/19 05:18:10;;;;;;;;;;;1.20;99.90;;;;;;5049346;28;19944;-79
2022/01/19 05:20:35;;;;;;;;;;;1.20;99.90;;;;;;5029517;28;20380;-79
2022/01/19 05:23:01;;;;;;;;;;;1.20;99.90;;;;;;5033075;28;19917;-79
2022/01/19 05:25:27;;;;;;;;;;;1.10;99.90;;;;;;5049347;28;19974;-79
2022/01/19 05:28:16;;;;;;;;;;;1.20;99.90;;;;;;5026983;28;19917;-79
2022/01/19 05:30:41;;;;;;;;;;;1.10;99.90;;;;;;5000642;28;20285;-79
2022/01/19 05:33:07;;;;;;;;;;;1.10;99.90;;;;;;5033645;28;19917;-79
2022/01/19 05:35:33;;;;;;;;;;;1.10;99.90;;;;;;5036762;28;19927;-79
2022/01/19 05:38:17;;;;;;;;;;;1.10;99.90;;;;;;5024971;28;19964;-78
2022/01/19 05:41:09;;;;;;;;;;;1.00;99.90;;;;;;5048988;28;19913;-79
2022/01/19 05:43:36;;;;;;;;;;;1.10;99.90;;;;;;5020432;28;19959;-79
2022/01/19 05:46:02;;;;;;;;;;;1.00;99.90;;;;;;5047066;28;19960;-78
2022/01/19 05:48:28;;;;;;;;;;;1.00;99.90;;;;;;5034573;28;19971;-79
2022/01/19 05:50:55;;;;;;;;;;;1.00;99.90;;;;;;5033231;28;20334;-78
2022/01/19 05:53:26;;;;;;;;;;;0.90;99.90;;;;;;5033330;28;19964;-79
2022/01/19 05:55:52;;;;;;;;;;;1.00;99.90;;;;;;5033000;28;19956;-79
2022/01/19 05:58:18;;;;;;;;;;;1.00;99.90;;;;;;5016878;28;19924;-78
2022/01/19 06:00:46;;;;;;;;;;;1.00;99.90;;;;;;5019831;28;19920;-79
2022/01/19 06:03:12;;;;;;;;;;;1.00;99.90;;;;;;5053953;28;19924;-79
2022/01/19 06:06:04;;;;;;;;;;;1.10;99.90;;;;;;5042243;28;19917;-80
2022/01/19 06:09:03;;;;;;;;;;;1.10;99.90;;;;;;5020000;28;19917;-79
2022/01/19 06:11:31;;;;;;;;;;;1.10;99.90;;;;;;5001579;28;19925;-78
2022/01/19 06:13:57;;;;;;;;;;;1.20;99.90;;;;;;5016638;28;19917;-79
2022/01/19 06:16:23;;;;;;;;;;;1.30;99.90;;;;;;5016240;28;19928;-79
2022/01/19 06:18:49;;;;;;;;;;;1.30;99.90;;;;;;5035226;28;19917;-78
2022/01/19 06:21:19;;;;;;;;;;;1.30;99.90;;;;;;5020115;28;19987;-79
2022/01/19 06:23:48;;;;;;;;;;;1.30;99.90;;;;;;5045518;28;19923;-78
2022/01/19 06:26:16;;;;;;;;;;;1.30;99.90;;;;;;5051249;28;20396;-79
2022/01/19 06:28:42;;;;;;;;;;;1.20;99.90;;;;;;5013305;28;19925;-79
2022/01/19 06:31:07;;;;;;;;;;;1.20;99.90;;;;;;5038516;28;19921;-78
2022/01/19 06:33:33;;;;;;;;;;;1.20;99.90;;;;;;5031360;28;19928;-78
2022/01/19 06:36:00;;;;;;;;;;;1.10;99.90;;;;;;5037307;28;19934;-79
2022/01/19 06:38:42;;;;;;;;;;;1.00;99.90;;;;;;5036492;28;19924;-79
2022/01/19 06:41:11;;;;;;;;;;;0.90;99.90;;;;;;5050582;28;19924;-78
2022/01/19 06:43:39;;;;;;;;;;;0.90;99.90;;;;;;5031088;28;20306;-78
2022/01/19 06:46:05;;;;;;;;;;;1.00;99.90;;;;;;5034743;28;20941;-78
2022/01/19 06:48:31;;;;;;;;;;;0.90;99.90;;;;;;5034298;28;19958;-78
2022/01/19 06:50:57;;;;;;;;;;;0.90;99.90;;;;;;5047221;28;19921;-78
2022/01/19 06:53:32;;;;;;;;;;;0.90;99.90;;;;;;5048170;28;19919;-78
2022/01/19 06:56:10;;;;;;;;;;;0.90;99.90;;;;;;5067930;28;20370;-79
2022/01/19 06:58:35;;;;;;;;;;;1.00;99.90;;;;;;5043730;28;19956;-79
2022/01/19 07:01:21;;;;;;;;;;;1.00;99.90;;;;;;5031332;28;19916;-79
2022/01/19 07:04:04;;;;;;;;;;;1.00;99.90;;;;;;5040872;28;19921;-78
2022/01/19 07:06:31;;;;;;;;;;;1.00;99.90;;;;;;5047950;28;20012;-78
2022/01/19 07:09:13;;;;;;;;;;;1.00;99.90;;;;;;5050886;28;19916;-78
2022/01/19 07:11:44;;;;;;;;;;;1.00;99.90;;;;;;5044859;28;20318;-78
2022/01/19 07:14:12;;;;;;;;;;;1.10;99.90;;;;;;5013792;28;19917;-78
2022/01/19 07:16:38;;;;;;;;;;;1.00;99.90;;;;;;5042576;28;20042;-78
2022/01/19 07:19:04;;;;;;;;;;;1.00;99.90;;;;;;5029980;28;19944;-78
2022/01/19 07:21:30;;;;;;;;;;;1.10;99.90;;;;;;4965155;28;1780007;-79
2022/01/19 07:23:57;;;;;;;;;;;1.10;99.90;;;;;;5046934;28;20383;-78
2022/01/19 07:26:23;;;;;;;;;;;1.10;99.90;;;;;;5027736;28;19963;-78
2022/01/19 07:28:49;;;;;;;;;;;1.10;99.90;;;;;;5049351;28;19912;-78
2022/01/19 07:31:15;;;;;;;;;;;1.10;99.90;;;;;;5055600;28;19921;-78
2022/01/19 07:33:41;;;;;;;;;;;1.20;99.90;;;;;;5050749;28;19912;-78
2022/01/19 07:36:06;;;;;;;;;;;1.30;99.90;;;;;;5041997;28;19920;-78
2022/01/19 07:38:32;;;;;;;;;;;1.30;99.90;;;;;;5031738;28;19920;-78
2022/01/19 07:40:57;;;;;;;;;;;1.30;99.90;;;;;;5051013;28;19912;-79
2022/01/19 07:43:23;;;;;;;;;;;1.30;99.90;;;;;;5033614;28;20280;-78
2022/01/19 07:46:09;;;;;;;;;;;1.30;99.90;;;;;;5044722;28;20011;-78
2022/01/19 07:48:46;;;;;;;;;;;1.30;99.90;;;;;;5043499;28;20299;-78
2022/01/19 07:51:35;;;;;;;;;;;1.20;99.90;;;;;;5053879;28;19920;-79
2022/01/19 07:54:24;;;;;;;;;;;1.30;99.90;;;;;;5037693;28;19921;-78
2022/01/19 07:57:25;;;;;;;;;;;1.30;99.90;;;;;;5049601;28;19917;-78
2022/01/19 07:59:56;;;;;;;;;;;1.20;99.90;;;;;;5056561;28;19917;-78
2022/01/19 08:02:32;;;;;;;;;;;1.30;99.90;;;;;;5018340;28;19924;-78
2022/01/19 08:05:17;;;;;;;;;;;1.20;99.90;;;;;;5043212;28;19970;-78
2022/01/19 08:07:45;;;;;;;;;;;1.20;99.90;;;;;;5047271;28;20374;-78
2022/01/19 08:10:10;;;;;;;;;;;1.20;99.90;;;;;;5032265;28;20040;-78
2022/01/19 08:12:37;;;;;;;;;;;1.20;99.90;;;;;;5049485;28;19923;-79
2022/01/19 08:15:03;;;;;;;;;;;1.20;99.90;;;;;;5050474;28;20031;-79
2022/01/19 08:17:32;;;;;;;;;;;1.20;99.90;;;;;;5031004;28;20566;-79
2022/01/19 08:19:58;;;;;;;;;;;1.20;99.90;;;;;;5032923;28;19917;-78
2022/01/19 08:22:24;;;;;;;;;;;1.10;99.90;;;;;;5045826;28;19917;-79
2022/01/19 08:25:08;;;;;;;;;;;1.10;99.90;;;;;;5036406;28;20418;-79
2022/01/19 08:27:34;;;;;;;;;;;1.20;99.90;;;;;;5032870;28;19917;-78
2022/01/19 08:30:04;;;;;;;;;;;1.20;99.90;;;;;;5044555;28;20019;-78
2022/01/19 08:32:29;;;;;;;;;;;1.20;99.90;;;;;;5024517;28;19919;-79
2022/01/19 08:35:15;;;;;;;;;;;1.30;99.90;;;;;;5023887;28;20063;-79
2022/01/19 08:38:06;;;;;;;;;;;1.30;99.90;;;;;;5050487;28;19920;-78
2022/01/19 08:40:40;;;;;;;;;;;1.30;99.90;;;;;;5050162;28;19921;-80
2022/01/19 08:43:16;;;;;;;;;;;1.20;99.90;;;;;;5033217;28;19928;-78
2022/01/19 08:45:43;;;;;;;;;;;1.30;99.90;;;;;;5044391;28;19913;-78
2022/01/19 08:48:11;;;;;;;;;;;1.20;99.90;;;;;;5047726;28;20616;-78
2022/01/19 08:50:56;;;;;;;;;;;1.20;99.90;;;;;;5037566;28;19920;-79
2022/01/19 08:53:40;;;;;;;;;;;1.10;99.90;;;;;;5005512;28;19917;-78
2022/01/19 08:56:35;;;;;;;;;;;1.10;99.90;;;;;;5057606;28;19920;-79
2022/01/19 08:59:00;;;;;;;;;;;1.20;99.90;;;;;;5032745;28;20371;-79
2022/01/19 09:01:26;;;;;;;;;;;1.20;99.90;;;;;;5047458;28;19923;-78
2022/01/19 09:03:52;;;;;;;;;;;1.10;99.90;;;;;;5052522;28;20375;-78
2022/01/19 09:06:18;;;;;;;;;;;1.20;99.90;;;;;;5035693;28;19963;-79
2022/01/19 09:08:44;;;;;;;;;;;1.30;99.90;;;;;;5049400;28;20538;-79
2022/01/19 09:11:11;;;;;;;;;;;1.30;99.90;;;;;;5029502;28;19928;-78
2022/01/19 09:13:36;;;;;;;;;;;1.30;99.90;;;;;;5033179;28;19919;-78
2022/01/19 09:16:02;;;;;;;;;;;1.30;99.90;;;;;;5026840;28;19912;-79
2022/01/19 09:18:28;;;;;;;;;;;1.40;99.90;;;;;;5049362;28;19917;-78
2022/01/19 09:20:53;;;;;;;;;;;1.30;99.90;;;;;;5043814;28;19924;-79
2022/01/19 09:23:19;;;;;;;;;;;1.40;99.90;;;;;;5018524;28;20376;-79
2022/01/19 09:25:44;;;;;;;;;;;1.40;99.90;;;;;;5046572;28;20026;-79
2022/01/19 09:28:10;;;;;;;;;;;1.40;99.90;;;;;;5029754;28;19939;-80
2022/01/19 09:30:36;;;;;;;;;;;1.40;99.90;;;;;;5040865;28;19917;-80
2022/01/19 09:33:19;;;;;;;;;;;1.30;99.90;;;;;;5050716;28;19913;-80
2022/01/19 09:36:07;;;;;;;;;;;1.30;99.90;;;;;;5042835;28;19948;-80
2022/01/19 09:38:34;;;;;;;;;;;1.30;99.90;;;;;;5052839;28;19925;-79
2022/01/19 09:40:59;;;;;;;;;;;1.40;99.90;;;;;;5047591;28;19980;-80
2022/01/19 09:43:25;;;;;;;;;;;1.40;99.90;;;;;;5053914;28;20380;-79
2022/01/19 09:45:52;;;;;;;;;;;1.40;99.90;;;;;;5046851;28;20307;-79
2022/01/19 09:48:17;;;;;;;;;;;1.40;99.90;;;;;;5049158;28;19924;-80
2022/01/19 09:50:43;;;;;;;;;;;1.40;99.90;;;;;;5049219;28;19928;-79
2022/01/19 09:53:09;;;;;;;;;;;1.40;99.90;;;;;;5050607;28;19913;-78
2022/01/19 09:55:35;;;;;;;;;;;1.40;99.90;;;;;;5042170;28;20564;-82
2022/01/19 09:58:01;;;;;;;;;;;1.40;99.90;;;;;;5042737;28;19909;-82
2022/01/19 10:00:26;;;;;;;;;;;1.40;99.90;;;;;;5036141;28;19977;-81
2022/01/19 10:03:30;;;;;;;;;;;1.40;99.90;;;;;;5041817;28;20399;-81
2022/01/19 10:05:56;;;;;;;;;;;1.40;99.90;;;;;;5030222;28;19948;-79
2022/01/19 10:08:25;;;;;;;;;;;1.50;99.90;;;;;;5050537;28;19959;-81
2022/01/19 10:11:03;;;;;;;;;;;1.50;99.90;;;;;;5049503;28;20430;-81
2022/01/19 10:19:20;;;;;;;;;;;1.50;99.90;;;;;;5047292;28;20015;-80
2022/01/19 10:21:59;;;;;;;;;;;1.60;99.90;;;;;;5049490;28;20292;-80
2022/01/19 10:24:38;;;;;;;;;;;1.60;99.90;;;;;;5046355;28;19913;-79
2022/01/19 10:27:19;;;;;;;;;;;1.60;99.90;;;;;;5042439;28;20264;-79
2022/01/19 10:29:45;;;;;;;;;;;1.60;99.90;;;;;;5031957;28;20406;-79
2022/01/19 10:32:11;;;;;;;;;;;1.70;99.90;;;;;;5030654;28;20019;-78
2022/01/19 10:34:36;;;;;;;;;;;1.70;99.90;;;;;;5030776;28;19917;-81
2022/01/19 10:37:04;;;;;;;;;;;1.80;99.90;;;;;;5030495;28;20024;-78
2022/01/19 10:39:39;;;;;;;;;;;1.90;99.90;;;;;;5040151;28;20325;-78
2022/01/19 10:42:06;;;;;;;;;;;1.90;99.90;;;;;;5030910;28;19921;-79
2022/01/19 10:44:41;;;;;;;;;;;2.00;99.90;;;;;;5034949;28;19921;-80
2022/01/19 10:47:07;;;;;;;;;;;2.00;99.90;;;;;;5041148;28;19920;-80
2022/01/19 10:50:05;;;;;;;;;;;2.20;99.90;;;;;;5036990;28;19969;-80
2022/01/19 10:52:30;;;;;;;;;;;2.20;99.90;;;;;;5024885;28;19924;-80
2022/01/19 10:54:57;;;;;;;;;;;2.20;99.90;;;;;;5025502;28;20275;-79
2022/01/19 10:57:23;;;;;;;;;;;2.20;99.90;;;;;;5034429;28;19917;-81
2022/01/19 10:59:50;;;;;;;;;;;2.20;99.90;;;;;;5038488;28;19920;-79
2022/01/19 11:02:17;;;;;;;;;;;2.30;99.90;;;;;;5054383;28;19935;-79
2022/01/19 11:04:44;;;;;;;;;;;2.30;99.90;;;;;;5032192;28;19917;-79
2022/01/19 11:07:11;;;;;;;;;;;2.30;99.90;;;;;;5038809;28;19920;-78
2022/01/19 11:09:45;;;;;;;;;;;2.30;99.90;;;;;;5045691;28;20357;-78
2022/01/19 11:12:14;;;;;;;;;;;2.20;99.90;;;;;;5055600;28;19925;-78
2022/01/19 11:14:40;;;;;;;;;;;2.30;99.90;;;;;;5040786;28;19909;-80
2022/01/19 11:17:06;;;;;;;;;;;2.30;99.90;;;;;;5045854;28;19924;-79
2022/01/19 11:19:39;;;;;;;;;;;2.30;99.90;;;;;;5039755;28;19913;-79
2022/01/19 11:22:05;;;;;;;;;;;2.30;99.90;;;;;;5047251;28;19924;-79
2022/01/19 11:24:40;;;;;;;;;;;2.30;99.90;;;;;;5050132;28;20449;-80
2022/01/19 11:27:06;;;;;;;;;;;2.40;99.90;;;;;;5027882;28;19992;-80
2022/01/19 11:29:32;;;;;;;;;;;2.40;99.90;;;;;;5046426;28;19912;-80
2022/01/19 11:32:11;;;;;;;;;;;2.40;99.90;;;;;;5023934;28;19956;-80
2022/01/19 11:34:47;;;;;;;;;;;2.40;99.90;;;;;;5023363;28;19913;-80
2022/01/19 11:37:14;;;;;;;;;;;2.40;99.90;;;;;;5047905;28;19913;-80
2022/01/19 11:40:15;;;;;;;;;;;2.40;99.90;;;;;;5010511;28;19917;-80
2022/01/19 11:42:42;;;;;;;;;;;2.40;99.90;;;;;;5045533;28;19913;-80
2022/01/19 11:45:09;;;;;;;;;;;2.50;99.90;;;;;;5040436;28;19940;-81
2022/01/19 11:47:35;;;;;;;;;;;2.50;99.90;;;;;;5030184;28;19960;-80
2022/01/19 11:50:05;;;;;;;;;;;2.50;99.90;;;;;;5034105;28;19967;-80
2022/01/19 11:52:36;;;;;;;;;;;2.50;99.90;;;;;;5024218;28;19920;-77
2022/01/19 11:55:14;;;;;;;;;;;2.60;99.90;;;;;;5042354;28;19919;-77
2022/01/19 11:57:40;;;;;;;;;;;2.60;99.90;;;;;;5050590;28;20434;-78
2022/01/19 12:00:08;;;;;;;;;;;2.70;99.90;;;;;;5041788;28;19913;-78
2022/01/19 12:02:39;;;;;;;;;;;2.70;99.90;;;;;;5030888;28;19999;-78
2022/01/19 12:05:04;;;;;;;;;;;2.70;99.90;;;;;;5051799;28;20430;-78
2022/01/19 12:07:33;;;;;;;;;;;2.70;99.90;;;;;;5050202;28;19961;-78
2022/01/19 12:09:58;;;;;;;;;;;2.80;99.90;;;;;;5064576;28;19917;-77
2022/01/19 12:12:28;;;;;;;;;;;2.80;99.90;;;;;;5047349;28;19924;-78
2022/01/19 12:14:53;;;;;;;;;;;2.90;99.90;;;;;;5047021;28;19921;-77
2022/01/19 12:17:26;;;;;;;;;;;2.90;99.90;;;;;;5048369;28;19920;-77
2022/01/19 12:19:52;;;;;;;;;;;2.90;99.90;;;;;;5045342;28;20042;-77
2022/01/19 12:22:20;;;;;;;;;;;2.90;99.90;;;;;;5044963;28;19999;-80
2022/01/19 12:24:56;;;;;;;;;;;2.90;99.90;;;;;;5030886;28;20391;-80
2022/01/19 12:27:28;;;;;;;;;;;2.90;99.90;;;;;;5026978;28;19917;-79
2022/01/19 12:30:06;;;;;;;;;;;2.90;99.90;;;;;;5026223;28;20532;-80
2022/01/19 12:32:33;;;;;;;;;;;2.90;99.90;;;;;;5040003;28;19940;-80
2022/01/19 12:35:05;;;;;;;;;;;2.90;99.90;;;;;;5047365;28;20533;-80
2022/01/19 12:37:37;;;;;;;;;;;2.90;99.90;;;;;;5032884;28;19919;-80
2022/01/19 12:40:18;;;;;;;;;;;2.90;99.90;;;;;;5050011;28;19920;-80
2022/01/19 12:42:43;;;;;;;;;;;2.70;99.90;;;;;;5023743;28;19917;-80
2022/01/19 12:45:15;;;;;;;;;;;2.70;99.90;;;;;;5045100;28;20354;-80
2022/01/19 12:47:40;;;;;;;;;;;2.70;99.90;;;;;;5024551;28;19920;-78
2022/01/19 12:50:06;;;;;;;;;;;2.60;99.90;;;;;;5041540;28;20549;-78
2022/01/19 12:52:32;;;;;;;;;;;2.50;99.90;;;;;;5048188;28;19916;-79
2022/01/19 12:55:08;;;;;;;;;;;2.50;99.90;;;;;;5060268;28;19917;-80
2022/01/19 12:57:34;;;;;;;;;;;2.50;99.90;;;;;;5041929;28;20298;-79
2022/01/19 13:00:00;;;;;;;;;;;2.50;99.90;;;;;;5051198;28;19924;-78
2022/01/19 13:02:29;;;;;;;;;;;2.30;99.90;;;;;;5040160;28;20103;-78
2022/01/19 13:05:03;;;;;;;;;;;2.30;99.90;;;;;;5038532;28;19920;-79
2022/01/19 13:07:31;;;;;;;;;;;2.30;99.90;;;;;;5047861;28;19913;-79
2022/01/19 13:10:05;;;;;;;;;;;2.30;99.90;;;;;;5029440;28;20295;-79
2022/01/19 13:12:32;;;;;;;;;;;2.30;99.90;;;;;;5045160;28;19920;-79
2022/01/19 13:14:57;;;;;;;;;;;2.20;99.90;;;;;;5028247;28;19924;-79
2022/01/19 13:17:23;;;;;;;;;;;2.10;99.90;;;;;;5060990;28;19920;-81
2022/01/19 13:19:48;;;;;;;;;;;2.10;99.90;;;;;;5030335;28;20038;-79
2022/01/19 13:22:14;;;;;;;;;;;2.10;99.90;;;;;;5034223;28;19974;-79
2022/01/19 13:24:39;;;;;;;;;;;2.10;99.90;;;;;;5051059;28;19948;-80
2022/01/19 13:27:06;;;;;;;;;;;2.10;99.90;;;;;;5041060;28;20383;-79
2022/01/19 13:29:34;;;;;;;;;;;2.00;99.90;;;;;;5060735;28;19913;-80
2022/01/19 13:32:00;;;;;;;;;;;2.00;99.90;;;;;;5044028;28;19917;-79
2022/01/19 13:34:26;;;;;;;;;;;2.00;99.90;;;;;;5031757;28;19974;-79
2022/01/19 13:36:56;;;;;;;;;;;2.00;99.90;;;;;;5043127;28;20417;-79
2022/01/19 13:39:22;;;;;;;;;;;2.00;99.90;;;;;;5038968;28;20352;-79
2022/01/19 13:41:50;;;;;;;;;;;2.00;99.90;;;;;;5045085;28;20352;-79
2022/01/19 13:44:20;;;;;;;;;;;2.00;99.90;;;;;;5056585;28;19913;-79
2022/01/19 13:46:46;;;;;;;;;;;2.00;99.90;;;;;;5025410;28;19920;-79
2022/01/19 13:49:11;;;;;;;;;;;2.00;99.90;;;;;;5027958;28;19917;-79
2022/01/19 13:51:41;;;;;;;;;;;1.90;99.90;;;;;;5033889;28;19928;-80
2022/01/19 13:54:07;;;;;;;;;;;1.90;99.90;;;;;;5051603;28;19952;-80
2022/01/19 13:56:35;;;;;;;;;;;1.90;99.90;;;;;;5033653;28;20390;-79
2022/01/19 13:59:04;;;;;;;;;;;1.90;99.90;;;;;;5048225;28;19981;-79
2022/01/19 14:01:39;;;;;;;;;;;1.90;99.90;;;;;;5050422;28;19928;-79
2022/01/19 14:04:09;;;;;;;;;;;1.80;99.90;;;;;;5025166;28;19920;-79
2022/01/19 14:06:36;;;;;;;;;;;1.80;99.90;;;;;;5050495;28;19917;-80
2022/01/19 14:09:03;;;;;;;;;;;1.70;99.90;;;;;;5017200;28;19913;-78
2022/01/19 14:11:28;;;;;;;;;;;1.70;99.90;;;;;;5033999;28;19921;-78
2022/01/19 14:13:58;;;;;;;;;;;1.70;99.90;;;;;;5050525;28;20282;-78
2022/01/19 14:16:24;;;;;;;;;;;1.70;99.90;;;;;;5049398;28;19923;-77
2022/01/19 14:19:08;;;;;;;;;;;1.60;99.90;;;;;;5049996;28;19913;-78
2022/01/19 14:21:34;;;;;;;;;;;1.60;99.90;;;;;;5029145;28;19921;-79
2022/01/19 14:24:01;;;;;;;;;;;1.60;99.90;;;;;;5025598;28;19935;-77
2022/01/19 14:26:27;;;;;;;;;;;1.60;99.90;;;;;;5048981;28;19912;-78
2022/01/19 14:29:14;;;;;;;;;;;1.60;99.90;;;;;;5049838;28;20402;-77
2022/01/19 14:31:47;;;;;;;;;;;1.50;99.90;;;;;;5064037;28;19924;-78
2022/01/19 14:34:12;;;;;;;;;;;1.50;99.90;;;;;;5034716;28;20290;-78
2022/01/19 14:36:38;;;;;;;;;;;1.60;99.90;;;;;;5033652;28;19916;-78
2022/01/19 14:39:03;;;;;;;;;;;1.60;99.90;;;;;;5046814;28;20023;-78
2022/01/19 14:41:32;;;;;;;;;;;1.60;99.90;;;;;;5061798;28;19916;-78
2022/01/19 14:44:05;;;;;;;;;;;1.60;99.90;;;;;;5056600;28;19920;-78
2022/01/19 14:47:05;;;;;;;;;;;1.60;99.90;;;;;;5055159;28;19913;-78
2022/01/19 14:49:31;;;;;;;;;;;1.70;99.90;;;;;;5048147;28;20283;-78
2022/01/19 14:51:57;;;;;;;;;;;1.70;99.90;;;;;;5051825;28;20015;-77
2022/01/19 14:54:23;;;;;;;;;;;1.70;99.90;;;;;;5053139;28;19923;-77
2022/01/19 14:56:49;;;;;;;;;;;1.70;99.90;;;;;;5061298;28;19913;-78
2022/01/19 14:59:16;;;;;;;;;;;1.70;99.90;;;;;;5067324;28;20043;-77
2022/01/19 15:01:43;;;;;;;;;;;1.60;99.90;;;;;;5051415;28;19921;-78
2022/01/19 15:04:09;;;;;;;;;;;1.70;99.90;;;;;;5051550;28;19956;-78
2022/01/19 15:06:36;;;;;;;;;;;1.60;99.90;;;;;;5047001;28;19917;-78
2022/01/19 15:09:03;;;;;;;;;;;1.60;99.90;;;;;;5051684;28;20284;-78
2022/01/19 15:11:30;;;;;;;;;;;1.60;99.90;;;;;;5051277;28;19917;-77
2022/01/19 15:13:55;;;;;;;;;;;1.60;99.90;;;;;;5033173;28;19952;-78
2022/01/19 15:16:21;;;;;;;;;;;1.60;99.90;;;;;;5031254;28;19952;-78
2022/01/19 15:18:47;;;;;;;;;;;1.60;99.90;;;;;;5044484;28;19970;-78
2022/01/19 15:21:15;;;;;;;;;;;1.60;99.90;;;;;;5025596;28;19928;-78
2022/01/19 15:23:40;;;;;;;;;;;1.60;99.90;;;;;;5034670;28;19917;-80
2022/01/19 15:26:06;;;;;;;;;;;1.60;99.90;;;;;;5042820;28;19940;-80
2022/01/19 15:28:32;;;;;;;;;;;1.60;99.90;;;;;;5055039;28;19913;-79
2022/01/19 15:30:58;;;;;;;;;;;1.60;99.90;;;;;;5052589;28;19923;-79
2022/01/19 15:33:24;;;;;;;;;;;1.60;99.90;;;;;;5046341;28;19916;-80
2022/01/19 15:35:50;;;;;;;;;;;1.60;99.90;;;;;;5065921;28;19919;-78
2022/01/19 15:38:17;;;;;;;;;;;1.60;99.90;;;;;;5052505;28;19912;-77
2022/01/19 15:40:43;;;;;;;;;;;1.60;99.90;;;;;;5022337;28;19932;-79
2022/01/19 15:43:09;;;;;;;;;;;1.60;99.90;;;;;;5045503;28;19990;-80
2022/01/19 15:45:36;;;;;;;;;;;1.60;99.90;;;;;;5014238;28;19917;-81
2022/01/19 15:48:05;;;;;;;;;;;1.60;99.90;;;;;;5048429;28;20348;-80
2022/01/19 15:50:32;;;;;;;;;;;1.60;99.90;;;;;;5014272;28;19917;-81
2022/01/19 15:52:58;;;;;;;;;;;1.60;99.90;;;;;;5046412;28;19913;-80
2022/01/19 15:55:24;;;;;;;;;;;1.60;99.90;;;;;;5028610;28;19924;-79
2022/01/19 15:57:49;;;;;;;;;;;1.60;99.90;;;;;;5031084;28;20000;-80
2022/01/19 16:00:15;;;;;;;;;;;1.60;99.90;;;;;;5034783;28;20008;-80
2022/01/19 16:02:41;;;;;;;;;;;1.70;99.90;;;;;;5038597;28;19919;-80
2022/01/19 16:05:07;;;;;;;;;;;1.70;99.90;;;;;;5051620;28;19921;-80
2022/01/19 16:07:32;;;;;;;;;;;1.70;99.90;;;;;;5069186;28;19912;-80
2022/01/19 16:09:58;;;;;;;;;;;1.60;99.90;;;;;;5027956;28;19920;-81
2022/01/19 16:12:24;;;;;;;;;;;1.60;99.90;;;;;;5046453;28;19924;-79
2022/01/19 16:14:50;;;;;;;;;;;1.60;99.90;;;;;;5051146;28;21234;-80